sensor_id;sensor_type;location;lat;lon;timestamp;P1;durP1;ratioP1;P2;durP2;ratioP2
5014;SDS011;2526;51.060;4.228;2022-09-01T00:01:20;2.17;;;0.70;;
5014;SDS011;2526;51.060;4.228;2022-09-01T00:03:46;3.08;;;0.70;;
5014;SDS011;2526;51.060;4.228;2022-09-01T00:06:16;14.77;;;0.77;;
5014;SDS011;2526;51.060;4.228;2022-09-01T00:08:50;2.20;;;0.93;;
5014;SDS011;2526;51.060;4.228;2022-09-01T00:11:16;3.03;;;0.95;;
5014;SDS011;2526;51.060;4.228;2022-09-01T00:13:42;0.40;;;0.30;;
5014;SDS011;2526;51.060;4.228;2022-09-01T00:16:08;0.70;;;0.50;;
5014;SDS011;2526;51.060;4.228;2022-09-01T00:18:34;4.38;;;0.73;;
5014;SDS011;2526;51.060;4.228;2022-09-01T00:21:00;0.50;;;0.30;;
5014;SDS011;2526;51.060;4.228;2022-09-01T00:23:26;13.25;;;1.02;;
5014;SDS011;2526;51.060;4.228;2022-09-01T00:25:52;1.13;;;0.47;;
5014;SDS011;2526;51.060;4.228;2022-09-01T00:28:18;0.45;;;0.40;;
5014;SDS011;2526;51.060;4.228;2022-09-01T00:30:43;2.83;;;0.55;;
5014;SDS011;2526;51.060;4.228;2022-09-01T00:33:08;0.98;;;0.50;;
5014;SDS011;2526;51.060;4.228;2022-09-01T00:35:34;1.05;;;0.50;;
5014;SDS011;2526;51.060;4.228;2022-09-01T00:37:59;4.40;;;0.75;;
5014;SDS011;2526;51.060;4.228;2022-09-01T00:40:25;0.35;;;0.35;;
5014;SDS011;2526;51.060;4.228;2022-09-01T00:42:50;4.07;;;0.55;;
5014;SDS011;2526;51.060;4.228;2022-09-01T00:45:17;0.63;;;0.60;;
5014;SDS011;2526;51.060;4.228;2022-09-01T00:47:45;0.63;;;0.63;;
5014;SDS011;2526;51.060;4.228;2022-09-01T00:50:10;1.42;;;0.80;;
5014;SDS011;2526;51.060;4.228;2022-09-01T00:52:38;3.50;;;0.52;;
5014;SDS011;2526;51.060;4.228;2022-09-01T00:55:11;1.08;;;1.08;;
5014;SDS011;2526;51.060;4.228;2022-09-01T00:57:37;0.77;;;0.68;;
5014;SDS011;2526;51.060;4.228;2022-09-01T01:00:16;1.77;;;0.50;;
5014;SDS011;2526;51.060;4.228;2022-09-01T01:02:42;2.85;;;0.82;;
5014;SDS011;2526;51.060;4.228;2022-09-01T01:05:10;0.77;;;0.40;;
5014;SDS011;2526;51.060;4.228;2022-09-01T01:07:36;2.88;;;1.15;;
5014;SDS011;2526;51.060;4.228;2022-09-01T01:10:07;2.50;;;0.60;;
5014;SDS011;2526;51.060;4.228;2022-09-01T01:12:34;0.25;;;0.25;;
5014;SDS011;2526;51.060;4.228;2022-09-01T01:15:02;0.57;;;0.45;;
5014;SDS011;2526;51.060;4.228;2022-09-01T01:17:30;4.30;;;0.75;;
5014;SDS011;2526;51.060;4.228;2022-09-01T01:19:55;0.50;;;0.50;;
5014;SDS011;2526;51.060;4.228;2022-09-01T01:27:49;0.73;;;0.50;;
5014;SDS011;2526;51.060;4.228;2022-09-01T01:30:15;1.33;;;0.65;;
5014;SDS011;2526;51.060;4.228;2022-09-01T01:32:42;0.55;;;0.55;;
5014;SDS011;2526;51.060;4.228;2022-09-01T01:35:10;7.10;;;0.68;;
5014;SDS011;2526;51.060;4.228;2022-09-01T01:37:42;10.55;;;1.15;;
5014;SDS011;2526;51.060;4.228;2022-09-01T01:40:11;0.65;;;0.52;;
5014;SDS011;2526;51.060;4.228;2022-09-01T01:42:46;1.42;;;0.50;;
5014;SDS011;2526;51.060;4.228;2022-09-01T01:45:13;1.37;;;0.80;;
5014;SDS011;2526;51.060;4.228;2022-09-01T01:47:42;0.65;;;0.28;;
5014;SDS011;2526;51.060;4.228;2022-09-01T01:50:08;4.03;;;0.80;;
5014;SDS011;2526;51.060;4.228;2022-09-01T01:52:34;2.38;;;0.85;;
5014;SDS011;2526;51.060;4.228;2022-09-01T01:55:00;1.10;;;0.60;;
5014;SDS011;2526;51.060;4.228;2022-09-01T01:57:26;1.23;;;0.73;;
5014;SDS011;2526;51.060;4.228;2022-09-01T01:59:56;0.63;;;0.63;;
5014;SDS011;2526;51.060;4.228;2022-09-01T02:02:21;0.82;;;0.75;;
5014;SDS011;2526;51.060;4.228;2022-09-01T02:04:47;1.45;;;0.77;;
5014;SDS011;2526;51.060;4.228;2022-09-01T02:07:13;0.75;;;0.60;;
5014;SDS011;2526;51.060;4.228;2022-09-01T02:09:38;0.70;;;0.55;;
5014;SDS011;2526;51.060;4.228;2022-09-01T02:12:05;6.25;;;0.55;;
5014;SDS011;2526;51.060;4.228;2022-09-01T02:14:32;3.83;;;0.98;;
5014;SDS011;2526;51.060;4.228;2022-09-01T02:16:57;0.50;;;0.50;;
5014;SDS011;2526;51.060;4.228;2022-09-01T02:19:23;2.90;;;0.50;;
5014;SDS011;2526;51.060;4.228;2022-09-01T02:21:48;0.32;;;0.32;;
5014;SDS011;2526;51.060;4.228;2022-09-01T02:24:18;0.65;;;0.40;;
5014;SDS011;2526;51.060;4.228;2022-09-01T02:26:44;1.20;;;0.60;;
5014;SDS011;2526;51.060;4.228;2022-09-01T02:29:13;1.55;;;0.93;;
5014;SDS011;2526;51.060;4.228;2022-09-01T02:31:47;0.68;;;0.50;;
5014;SDS011;2526;51.060;4.228;2022-09-01T02:34:13;2.22;;;0.77;;
5014;SDS011;2526;51.060;4.228;2022-09-01T02:36:39;2.55;;;0.85;;
5014;SDS011;2526;51.060;4.228;2022-09-01T02:39:09;0.77;;;0.70;;
5014;SDS011;2526;51.060;4.228;2022-09-01T02:41:34;2.22;;;0.60;;
5014;SDS011;2526;51.060;4.228;2022-09-01T02:44:00;8.20;;;0.82;;
5014;SDS011;2526;51.060;4.228;2022-09-01T02:46:26;1.35;;;0.55;;
5014;SDS011;2526;51.060;4.228;2022-09-01T02:48:53;2.55;;;1.23;;
5014;SDS011;2526;51.060;4.228;2022-09-01T02:51:22;15.30;;;0.63;;
5014;SDS011;2526;51.060;4.228;2022-09-01T02:53:49;0.80;;;0.70;;
5014;SDS011;2526;51.060;4.228;2022-09-01T02:56:21;0.55;;;0.55;;
5014;SDS011;2526;51.060;4.228;2022-09-01T02:58:47;0.70;;;0.65;;
5014;SDS011;2526;51.060;4.228;2022-09-01T03:01:14;0.65;;;0.65;;
5014;SDS011;2526;51.060;4.228;2022-09-01T03:03:41;2.08;;;0.75;;
5014;SDS011;2526;51.060;4.228;2022-09-01T03:06:06;1.20;;;0.50;;
5014;SDS011;2526;51.060;4.228;2022-09-01T03:08:34;1.13;;;0.52;;
5014;SDS011;2526;51.060;4.228;2022-09-01T03:11:02;0.45;;;0.45;;
5014;SDS011;2526;51.060;4.228;2022-09-01T03:13:29;1.45;;;0.70;;
5014;SDS011;2526;51.060;4.228;2022-09-01T03:15:55;1.50;;;0.70;;
5014;SDS011;2526;51.060;4.228;2022-09-01T03:18:21;0.38;;;0.28;;
5014;SDS011;2526;51.060;4.228;2022-09-01T03:20:46;1.73;;;1.08;;
5014;SDS011;2526;51.060;4.228;2022-09-01T03:23:14;1.30;;;0.80;;
5014;SDS011;2526;51.060;4.228;2022-09-01T03:25:41;1.00;;;0.90;;
5014;SDS011;2526;51.060;4.228;2022-09-01T03:28:06;2.95;;;1.55;;
5014;SDS011;2526;51.060;4.228;2022-09-01T03:30:34;3.47;;;1.67;;
5014;SDS011;2526;51.060;4.228;2022-09-01T03:33:00;0.80;;;0.70;;
5014;SDS011;2526;51.060;4.228;2022-09-01T03:35:26;0.98;;;0.70;;
5014;SDS011;2526;51.060;4.228;2022-09-01T03:37:53;0.60;;;0.60;;
5014;SDS011;2526;51.060;4.228;2022-09-01T03:40:23;1.65;;;0.73;;
5014;SDS011;2526;51.060;4.228;2022-09-01T03:42:51;1.40;;;0.88;;
5014;SDS011;2526;51.060;4.228;2022-09-01T03:45:18;1.85;;;0.90;;
5014;SDS011;2526;51.060;4.228;2022-09-01T03:47:44;9.25;;;1.02;;
5014;SDS011;2526;51.060;4.228;2022-09-01T03:50:13;2.33;;;0.75;;
5014;SDS011;2526;51.060;4.228;2022-09-01T03:52:54;2.55;;;0.73;;
5014;SDS011;2526;51.060;4.228;2022-09-01T03:55:21;1.52;;;1.10;;
5014;SDS011;2526;51.060;4.228;2022-09-01T03:57:48;2.05;;;0.80;;
5014;SDS011;2526;51.060;4.228;2022-09-01T04:00:19;1.67;;;1.33;;
5014;SDS011;2526;51.060;4.228;2022-09-01T04:02:48;1.05;;;0.95;;
5014;SDS011;2526;51.060;4.228;2022-09-01T04:05:14;2.53;;;0.90;;
5014;SDS011;2526;51.060;4.228;2022-09-01T04:07:40;4.10;;;1.20;;
5014;SDS011;2526;51.060;4.228;2022-09-01T04:10:06;1.92;;;1.20;;
5014;SDS011;2526;51.060;4.228;2022-09-01T04:12:35;4.72;;;3.15;;
5014;SDS011;2526;51.060;4.228;2022-09-01T04:15:01;4.03;;;2.17;;
5014;SDS011;2526;51.060;4.228;2022-09-01T04:17:27;4.45;;;1.55;;
5014;SDS011;2526;51.060;4.228;2022-09-01T04:20:11;4.85;;;1.60;;
5014;SDS011;2526;51.060;4.228;2022-09-01T04:22:37;1.40;;;1.10;;
5014;SDS011;2526;51.060;4.228;2022-09-01T04:25:03;2.03;;;1.30;;
5014;SDS011;2526;51.060;4.228;2022-09-01T04:27:29;1.25;;;0.80;;
5014;SDS011;2526;51.060;4.228;2022-09-01T04:29:54;4.07;;;1.00;;
5014;SDS011;2526;51.060;4.228;2022-09-01T04:32:21;7.03;;;1.23;;
5014;SDS011;2526;51.060;4.228;2022-09-01T04:34:48;2.63;;;1.45;;
5014;SDS011;2526;51.060;4.228;2022-09-01T04:37:15;14.63;;;1.92;;
5014;SDS011;2526;51.060;4.228;2022-09-01T04:39:42;1.17;;;0.90;;
5014;SDS011;2526;51.060;4.228;2022-09-01T04:42:13;2.92;;;1.52;;
5014;SDS011;2526;51.060;4.228;2022-09-01T04:44:40;3.78;;;1.13;;
5014;SDS011;2526;51.060;4.228;2022-09-01T04:47:07;2.13;;;1.25;;
5014;SDS011;2526;51.060;4.228;2022-09-01T04:49:36;1.63;;;1.05;;
5014;SDS011;2526;51.060;4.228;2022-09-01T04:52:02;4.25;;;1.13;;
5014;SDS011;2526;51.060;4.228;2022-09-01T04:54:28;2.28;;;1.02;;
5014;SDS011;2526;51.060;4.228;2022-09-01T04:56:57;3.92;;;1.73;;
5014;SDS011;2526;51.060;4.228;2022-09-01T04:59:23;2.97;;;1.38;;
5014;SDS011;2526;51.060;4.228;2022-09-01T05:01:49;2.55;;;1.50;;
5014;SDS011;2526;51.060;4.228;2022-09-01T05:04:16;1.85;;;1.13;;
5014;SDS011;2526;51.060;4.228;2022-09-01T05:06:43;5.88;;;1.13;;
5014;SDS011;2526;51.060;4.228;2022-09-01T05:09:10;6.65;;;2.13;;
5014;SDS011;2526;51.060;4.228;2022-09-01T05:11:36;2.55;;;1.95;;
5014;SDS011;2526;51.060;4.228;2022-09-01T05:14:03;12.15;;;1.67;;
5014;SDS011;2526;51.060;4.228;2022-09-01T05:16:29;4.18;;;1.40;;
5014;SDS011;2526;51.060;4.228;2022-09-01T05:18:55;5.00;;;1.85;;
5014;SDS011;2526;51.060;4.228;2022-09-01T05:21:21;33.30;;;4.25;;
5014;SDS011;2526;51.060;4.228;2022-09-01T05:23:49;3.15;;;1.83;;
5014;SDS011;2526;51.060;4.228;2022-09-01T05:26:20;5.80;;;1.92;;
5014;SDS011;2526;51.060;4.228;2022-09-01T05:28:46;13.02;;;2.35;;
5014;SDS011;2526;51.060;4.228;2022-09-01T05:31:12;4.45;;;2.40;;
5014;SDS011;2526;51.060;4.228;2022-09-01T05:33:38;13.68;;;2.83;;
5014;SDS011;2526;51.060;4.228;2022-09-01T05:36:16;3.08;;;1.85;;
5014;SDS011;2526;51.060;4.228;2022-09-01T05:38:42;3.35;;;1.75;;
5014;SDS011;2526;51.060;4.228;2022-09-01T05:41:09;1.92;;;1.52;;
5014;SDS011;2526;51.060;4.228;2022-09-01T05:43:39;6.80;;;2.28;;
5014;SDS011;2526;51.060;4.228;2022-09-01T05:46:09;11.38;;;1.77;;
5014;SDS011;2526;51.060;4.228;2022-09-01T05:48:35;6.03;;;2.03;;
5014;SDS011;2526;51.060;4.228;2022-09-01T05:51:05;3.67;;;2.05;;
5014;SDS011;2526;51.060;4.228;2022-09-01T05:53:31;3.97;;;1.95;;
5014;SDS011;2526;51.060;4.228;2022-09-01T05:55:59;1.92;;;1.30;;
5014;SDS011;2526;51.060;4.228;2022-09-01T05:58:25;10.15;;;5.20;;
5014;SDS011;2526;51.060;4.228;2022-09-01T06:00:51;9.20;;;3.15;;
5014;SDS011;2526;51.060;4.228;2022-09-01T06:03:19;11.98;;;3.67;;
5014;SDS011;2526;51.060;4.228;2022-09-01T06:05:44;4.00;;;2.42;;
5014;SDS011;2526;51.060;4.228;2022-09-01T06:08:17;7.47;;;2.85;;
5014;SDS011;2526;51.060;4.228;2022-09-01T06:10:43;4.05;;;2.22;;
5014;SDS011;2526;51.060;4.228;2022-09-01T06:13:09;8.43;;;3.30;;
5014;SDS011;2526;51.060;4.228;2022-09-01T06:15:36;6.00;;;2.70;;
5014;SDS011;2526;51.060;4.228;2022-09-01T06:18:05;24.63;;;3.65;;
5014;SDS011;2526;51.060;4.228;2022-09-01T06:20:31;10.18;;;3.30;;
5014;SDS011;2526;51.060;4.228;2022-09-01T06:22:57;6.35;;;3.38;;
5014;SDS011;2526;51.060;4.228;2022-09-01T06:25:23;10.35;;;3.67;;
5014;SDS011;2526;51.060;4.228;2022-09-01T06:27:50;7.00;;;3.92;;
5014;SDS011;2526;51.060;4.228;2022-09-01T06:30:16;12.55;;;4.05;;
5014;SDS011;2526;51.060;4.228;2022-09-01T06:32:44;5.05;;;2.58;;
5014;SDS011;2526;51.060;4.228;2022-09-01T06:35:11;9.63;;;4.15;;
5014;SDS011;2526;51.060;4.228;2022-09-01T06:37:37;7.00;;;3.35;;
5014;SDS011;2526;51.060;4.228;2022-09-01T06:40:03;9.25;;;2.72;;
5014;SDS011;2526;51.060;4.228;2022-09-01T06:42:29;6.25;;;2.78;;
5014;SDS011;2526;51.060;4.228;2022-09-01T06:44:55;10.32;;;3.92;;
5014;SDS011;2526;51.060;4.228;2022-09-01T06:47:21;7.72;;;4.55;;
5014;SDS011;2526;51.060;4.228;2022-09-01T06:49:46;5.25;;;2.83;;
5014;SDS011;2526;51.060;4.228;2022-09-01T06:52:11;2.70;;;2.38;;
5014;SDS011;2526;51.060;4.228;2022-09-01T06:54:37;11.07;;;4.07;;
5014;SDS011;2526;51.060;4.228;2022-09-01T06:57:05;5.85;;;3.40;;
5014;SDS011;2526;51.060;4.228;2022-09-01T06:59:31;7.22;;;3.15;;
5014;SDS011;2526;51.060;4.228;2022-09-01T07:02:00;6.28;;;4.25;;
5014;SDS011;2526;51.060;4.228;2022-09-01T07:04:28;6.68;;;2.90;;
5014;SDS011;2526;51.060;4.228;2022-09-01T07:06:54;11.13;;;4.05;;
5014;SDS011;2526;51.060;4.228;2022-09-01T07:09:21;11.57;;;4.00;;
5014;SDS011;2526;51.060;4.228;2022-09-01T07:11:47;11.50;;;3.50;;
5014;SDS011;2526;51.060;4.228;2022-09-01T07:14:13;9.52;;;3.28;;
5014;SDS011;2526;51.060;4.228;2022-09-01T07:16:41;11.30;;;3.20;;
5014;SDS011;2526;51.060;4.228;2022-09-01T07:19:09;8.45;;;4.88;;
5014;SDS011;2526;51.060;4.228;2022-09-01T07:21:39;9.55;;;3.95;;
5014;SDS011;2526;51.060;4.228;2022-09-01T07:24:05;13.90;;;3.72;;
5014;SDS011;2526;51.060;4.228;2022-09-01T07:26:31;5.50;;;3.72;;
5014;SDS011;2526;51.060;4.228;2022-09-01T07:29:00;6.28;;;4.10;;
5014;SDS011;2526;51.060;4.228;2022-09-01T07:31:29;5.47;;;3.10;;
5014;SDS011;2526;51.060;4.228;2022-09-01T07:33:57;12.32;;;3.28;;
5014;SDS011;2526;51.060;4.228;2022-09-01T07:36:23;13.27;;;5.03;;
5014;SDS011;2526;51.060;4.228;2022-09-01T07:38:48;7.28;;;3.45;;
5014;SDS011;2526;51.060;4.228;2022-09-01T07:41:22;8.82;;;2.92;;
5014;SDS011;2526;51.060;4.228;2022-09-01T07:43:48;33.75;;;6.13;;
5014;SDS011;2526;51.060;4.228;2022-09-01T07:46:17;11.13;;;4.32;;
5014;SDS011;2526;51.060;4.228;2022-09-01T07:48:43;10.43;;;5.20;;
5014;SDS011;2526;51.060;4.228;2022-09-01T07:51:10;25.38;;;5.20;;
5014;SDS011;2526;51.060;4.228;2022-09-01T07:53:37;8.80;;;3.33;;
5014;SDS011;2526;51.060;4.228;2022-09-01T07:56:07;14.65;;;4.05;;
5014;SDS011;2526;51.060;4.228;2022-09-01T07:58:34;5.70;;;3.45;;
5014;SDS011;2526;51.060;4.228;2022-09-01T08:00:59;7.75;;;4.75;;
5014;SDS011;2526;51.060;4.228;2022-09-01T08:03:28;6.22;;;3.50;;
5014;SDS011;2526;51.060;4.228;2022-09-01T08:05:54;8.70;;;4.35;;
5014;SDS011;2526;51.060;4.228;2022-09-01T08:08:23;14.18;;;3.78;;
5014;SDS011;2526;51.060;4.228;2022-09-01T08:10:49;7.60;;;3.78;;
5014;SDS011;2526;51.060;4.228;2022-09-01T08:13:14;4.40;;;3.15;;
5014;SDS011;2526;51.060;4.228;2022-09-01T08:15:40;10.55;;;3.30;;
5014;SDS011;2526;51.060;4.228;2022-09-01T08:18:06;7.53;;;4.18;;
5014;SDS011;2526;51.060;4.228;2022-09-01T08:20:32;5.90;;;3.80;;
5014;SDS011;2526;51.060;4.228;2022-09-01T08:23:02;7.93;;;3.10;;
5014;SDS011;2526;51.060;4.228;2022-09-01T08:25:28;4.50;;;3.10;;
5014;SDS011;2526;51.060;4.228;2022-09-01T08:27:53;9.00;;;2.83;;
5014;SDS011;2526;51.060;4.228;2022-09-01T08:30:19;12.95;;;2.85;;
5014;SDS011;2526;51.060;4.228;2022-09-01T08:32:45;9.30;;;3.05;;
5014;SDS011;2526;51.060;4.228;2022-09-01T08:35:11;7.63;;;2.75;;
5014;SDS011;2526;51.060;4.228;2022-09-01T08:37:37;3.90;;;2.45;;
5014;SDS011;2526;51.060;4.228;2022-09-01T08:40:05;10.98;;;2.70;;
5014;SDS011;2526;51.060;4.228;2022-09-01T08:42:48;9.57;;;2.78;;
5014;SDS011;2526;51.060;4.228;2022-09-01T08:47:45;2.85;;;2.33;;
5014;SDS011;2526;51.060;4.228;2022-09-01T08:50:10;20.50;;;3.10;;
5014;SDS011;2526;51.060;4.228;2022-09-01T08:52:44;10.73;;;3.03;;
5014;SDS011;2526;51.060;4.228;2022-09-01T08:55:18;6.03;;;2.58;;
5014;SDS011;2526;51.060;4.228;2022-09-01T08:57:48;5.25;;;2.67;;
5014;SDS011;2526;51.060;4.228;2022-09-01T09:00:16;7.30;;;2.20;;
5014;SDS011;2526;51.060;4.228;2022-09-01T09:02:50;4.45;;;2.40;;
5014;SDS011;2526;51.060;4.228;2022-09-01T09:07:52;11.15;;;2.55;;
5014;SDS011;2526;51.060;4.228;2022-09-01T09:10:23;1.75;;;1.60;;
5014;SDS011;2526;51.060;4.228;2022-09-01T09:16:08;3.85;;;2.47;;
5014;SDS011;2526;51.060;4.228;2022-09-01T09:20:55;3.65;;;1.95;;
5014;SDS011;2526;51.060;4.228;2022-09-01T09:23:28;2.53;;;2.05;;
5014;SDS011;2526;51.060;4.228;2022-09-01T09:25:53;1.98;;;1.70;;
5014;SDS011;2526;51.060;4.228;2022-09-01T09:28:19;4.15;;;1.85;;
5014;SDS011;2526;51.060;4.228;2022-09-01T09:30:44;3.00;;;1.98;;
5014;SDS011;2526;51.060;4.228;2022-09-01T09:33:10;3.95;;;2.80;;
5014;SDS011;2526;51.060;4.228;2022-09-01T09:35:55;3.75;;;1.83;;
5014;SDS011;2526;51.060;4.228;2022-09-01T09:41:18;5.30;;;2.50;;
5014;SDS011;2526;51.060;4.228;2022-09-01T09:43:48;10.98;;;2.80;;
5014;SDS011;2526;51.060;4.228;2022-09-01T09:46:24;6.33;;;1.67;;
5014;SDS011;2526;51.060;4.228;2022-09-01T09:51:31;3.72;;;2.25;;
5014;SDS011;2526;51.060;4.228;2022-09-01T09:57:13;2.35;;;1.60;;
5014;SDS011;2526;51.060;4.228;2022-09-01T09:59:43;3.58;;;2.22;;
5014;SDS011;2526;51.060;4.228;2022-09-01T10:02:21;6.68;;;1.92;;
5014;SDS011;2526;51.060;4.228;2022-09-01T10:04:49;5.15;;;2.28;;
5014;SDS011;2526;51.060;4.228;2022-09-01T10:07:35;4.72;;;2.22;;
5014;SDS011;2526;51.060;4.228;2022-09-01T10:10:04;4.03;;;1.95;;
5014;SDS011;2526;51.060;4.228;2022-09-01T10:12:29;1.88;;;1.25;;
5014;SDS011;2526;51.060;4.228;2022-09-01T10:15:06;5.93;;;1.85;;
5014;SDS011;2526;51.060;4.228;2022-09-01T10:17:39;4.22;;;1.17;;
5014;SDS011;2526;51.060;4.228;2022-09-01T10:20:19;5.32;;;2.85;;
5014;SDS011;2526;51.060;4.228;2022-09-01T10:22:46;7.90;;;1.55;;
5014;SDS011;2526;51.060;4.228;2022-09-01T10:25:22;1.52;;;1.42;;
5014;SDS011;2526;51.060;4.228;2022-09-01T10:27:50;1.88;;;1.20;;
5014;SDS011;2526;51.060;4.228;2022-09-01T10:30:18;12.38;;;2.88;;
5014;SDS011;2526;51.060;4.228;2022-09-01T10:32:59;13.87;;;2.33;;
5014;SDS011;2526;51.060;4.228;2022-09-01T10:35:29;6.82;;;1.17;;
5014;SDS011;2526;51.060;4.228;2022-09-01T10:37:55;0.45;;;0.45;;
5014;SDS011;2526;51.060;4.228;2022-09-01T10:42:57;2.80;;;1.08;;
5014;SDS011;2526;51.060;4.228;2022-09-01T10:45:33;4.57;;;1.30;;
5014;SDS011;2526;51.060;4.228;2022-09-01T10:50:44;1.42;;;0.85;;
5014;SDS011;2526;51.060;4.228;2022-09-01T10:53:35;1.00;;;0.47;;
5014;SDS011;2526;51.060;4.228;2022-09-01T10:58:32;3.80;;;0.93;;
5014;SDS011;2526;51.060;4.228;2022-09-01T11:01:00;1.17;;;0.73;;
5014;SDS011;2526;51.060;4.228;2022-09-01T11:03:34;2.60;;;0.90;;
5014;SDS011;2526;51.060;4.228;2022-09-01T11:06:04;5.95;;;0.70;;
5014;SDS011;2526;51.060;4.228;2022-09-01T11:11:09;0.68;;;0.65;;
5014;SDS011;2526;51.060;4.228;2022-09-01T11:13:42;3.35;;;1.25;;
5014;SDS011;2526;51.060;4.228;2022-09-01T11:16:23;2.95;;;0.77;;
5014;SDS011;2526;51.060;4.228;2022-09-01T11:18:49;2.15;;;1.23;;
5014;SDS011;2526;51.060;4.228;2022-09-01T11:21:25;1.73;;;0.80;;
5014;SDS011;2526;51.060;4.228;2022-09-01T11:24:42;1.65;;;0.70;;
5014;SDS011;2526;51.060;4.228;2022-09-01T11:26:44;3.05;;;0.80;;
5014;SDS011;2526;51.060;4.228;2022-09-01T11:31:56;3.88;;;1.70;;
5014;SDS011;2526;51.060;4.228;2022-09-01T11:34:22;1.52;;;0.93;;
5014;SDS011;2526;51.060;4.228;2022-09-01T11:36:56;1.23;;;0.77;;
5014;SDS011;2526;51.060;4.228;2022-09-01T11:39:31;0.40;;;0.40;;
5014;SDS011;2526;51.060;4.228;2022-09-01T11:46:47;6.13;;;0.82;;
5014;SDS011;2526;51.060;4.228;2022-09-01T11:49:34;2.33;;;0.93;;
5014;SDS011;2526;51.060;4.228;2022-09-01T11:52:00;8.43;;;1.27;;
5014;SDS011;2526;51.060;4.228;2022-09-01T11:54:27;2.92;;;0.75;;
5014;SDS011;2526;51.060;4.228;2022-09-01T11:56:54;1.10;;;0.70;;
5014;SDS011;2526;51.060;4.228;2022-09-01T11:59:32;0.57;;;0.45;;
5014;SDS011;2526;51.060;4.228;2022-09-01T12:01:59;6.05;;;0.93;;
5014;SDS011;2526;51.060;4.228;2022-09-01T12:04:28;0.50;;;0.50;;
5014;SDS011;2526;51.060;4.228;2022-09-01T12:06:56;0.90;;;0.60;;
5014;SDS011;2526;51.060;4.228;2022-09-01T12:09:30;1.40;;;1.17;;
5014;SDS011;2526;51.060;4.228;2022-09-01T12:11:56;1.00;;;0.80;;
5014;SDS011;2526;51.060;4.228;2022-09-01T12:14:21;1.13;;;0.88;;
5014;SDS011;2526;51.060;4.228;2022-09-01T12:16:55;1.23;;;0.77;;
5014;SDS011;2526;51.060;4.228;2022-09-01T12:19:21;6.68;;;1.02;;
5014;SDS011;2526;51.060;4.228;2022-09-01T12:21:54;3.63;;;1.00;;
5014;SDS011;2526;51.060;4.228;2022-09-01T12:24:21;0.90;;;0.70;;
5014;SDS011;2526;51.060;4.228;2022-09-01T12:26:48;1.30;;;0.95;;
5014;SDS011;2526;51.060;4.228;2022-09-01T12:29:14;3.05;;;1.00;;
5014;SDS011;2526;51.060;4.228;2022-09-01T12:31:41;2.05;;;1.83;;
5014;SDS011;2526;51.060;4.228;2022-09-01T12:39:59;1.60;;;0.85;;
5014;SDS011;2526;51.060;4.228;2022-09-01T12:42:31;1.50;;;1.00;;
5014;SDS011;2526;51.060;4.228;2022-09-01T12:45:04;1.00;;;0.90;;
5014;SDS011;2526;51.060;4.228;2022-09-01T12:52:46;1.98;;;1.10;;
5014;SDS011;2526;51.060;4.228;2022-09-01T12:55:32;2.08;;;1.52;;
5014;SDS011;2526;51.060;4.228;2022-09-01T12:57:58;3.25;;;1.35;;
5014;SDS011;2526;51.060;4.228;2022-09-01T13:00:31;1.75;;;1.38;;
5014;SDS011;2526;51.060;4.228;2022-09-01T13:05:29;2.75;;;0.80;;
5014;SDS011;2526;51.060;4.228;2022-09-01T13:07:57;1.25;;;0.75;;
5014;SDS011;2526;51.060;4.228;2022-09-01T13:10:23;3.30;;;1.20;;
5014;SDS011;2526;51.060;4.228;2022-09-01T13:12:49;2.15;;;0.95;;
5014;SDS011;2526;51.060;4.228;2022-09-01T13:15:15;2.78;;;1.25;;
5014;SDS011;2526;51.060;4.228;2022-09-01T13:17:41;0.65;;;0.60;;
5014;SDS011;2526;51.060;4.228;2022-09-01T13:20:08;11.90;;;1.52;;
5014;SDS011;2526;51.060;4.228;2022-09-01T13:22:34;1.60;;;0.90;;
5014;SDS011;2526;51.060;4.228;2022-09-01T13:25:00;0.70;;;0.70;;
5014;SDS011;2526;51.060;4.228;2022-09-01T13:27:25;2.17;;;1.35;;
5014;SDS011;2526;51.060;4.228;2022-09-01T13:29:51;6.30;;;1.08;;
5014;SDS011;2526;51.060;4.228;2022-09-01T13:32:17;8.98;;;1.15;;
5014;SDS011;2526;51.060;4.228;2022-09-01T13:34:43;1.75;;;0.80;;
5014;SDS011;2526;51.060;4.228;2022-09-01T13:37:08;1.98;;;1.10;;
5014;SDS011;2526;51.060;4.228;2022-09-01T13:39:33;3.72;;;1.17;;
5014;SDS011;2526;51.060;4.228;2022-09-01T13:41:59;2.00;;;1.02;;
5014;SDS011;2526;51.060;4.228;2022-09-01T13:44:24;2.35;;;1.00;;
5014;SDS011;2526;51.060;4.228;2022-09-01T13:46:50;1.02;;;0.80;;
5014;SDS011;2526;51.060;4.228;2022-09-01T13:49:16;10.60;;;2.00;;
5014;SDS011;2526;51.060;4.228;2022-09-01T13:51:41;1.20;;;1.10;;
5014;SDS011;2526;51.060;4.228;2022-09-01T13:54:06;2.83;;;1.27;;
5014;SDS011;2526;51.060;4.228;2022-09-01T13:56:32;1.92;;;1.15;;
5014;SDS011;2526;51.060;4.228;2022-09-01T13:58:57;1.38;;;0.88;;
5014;SDS011;2526;51.060;4.228;2022-09-01T14:01:23;1.25;;;1.15;;
5014;SDS011;2526;51.060;4.228;2022-09-01T14:03:49;10.63;;;1.02;;
5014;SDS011;2526;51.060;4.228;2022-09-01T14:06:15;2.75;;;1.23;;
5014;SDS011;2526;51.060;4.228;2022-09-01T14:08:40;3.78;;;1.60;;
5014;SDS011;2526;51.060;4.228;2022-09-01T14:11:06;1.52;;;1.15;;
5014;SDS011;2526;51.060;4.228;2022-09-01T14:13:31;1.95;;;0.85;;
5014;SDS011;2526;51.060;4.228;2022-09-01T14:15:57;4.15;;;1.50;;
5014;SDS011;2526;51.060;4.228;2022-09-01T14:18:23;3.65;;;1.35;;
5014;SDS011;2526;51.060;4.228;2022-09-01T14:20:49;2.90;;;1.58;;
5014;SDS011;2526;51.060;4.228;2022-09-01T14:23:15;4.38;;;1.38;;
5014;SDS011;2526;51.060;4.228;2022-09-01T14:25:45;6.78;;;1.10;;
5014;SDS011;2526;51.060;4.228;2022-09-01T14:28:11;3.42;;;1.25;;
5014;SDS011;2526;51.060;4.228;2022-09-01T14:30:38;0.88;;;0.88;;
5014;SDS011;2526;51.060;4.228;2022-09-01T14:33:03;2.78;;;1.23;;
5014;SDS011;2526;51.060;4.228;2022-09-01T14:35:29;4.57;;;2.08;;
5014;SDS011;2526;51.060;4.228;2022-09-01T14:37:58;2.20;;;1.20;;
5014;SDS011;2526;51.060;4.228;2022-09-01T14:40:23;1.40;;;0.73;;
5014;SDS011;2526;51.060;4.228;2022-09-01T14:42:49;0.85;;;0.60;;
5014;SDS011;2526;51.060;4.228;2022-09-01T14:45:20;1.80;;;0.88;;
5014;SDS011;2526;51.060;4.228;2022-09-01T14:47:46;2.17;;;1.10;;
5014;SDS011;2526;51.060;4.228;2022-09-01T14:50:12;0.70;;;0.70;;
5014;SDS011;2526;51.060;4.228;2022-09-01T14:52:38;0.45;;;0.45;;
5014;SDS011;2526;51.060;4.228;2022-09-01T14:55:04;0.60;;;0.60;;
5014;SDS011;2526;51.060;4.228;2022-09-01T14:57:29;0.50;;;0.50;;
5014;SDS011;2526;51.060;4.228;2022-09-01T14:59:56;0.90;;;0.90;;
5014;SDS011;2526;51.060;4.228;2022-09-01T15:02:21;1.75;;;1.02;;
5014;SDS011;2526;51.060;4.228;2022-09-01T15:04:49;2.15;;;1.10;;
5014;SDS011;2526;51.060;4.228;2022-09-01T15:07:15;0.55;;;0.55;;
5014;SDS011;2526;51.060;4.228;2022-09-01T15:09:41;0.95;;;0.60;;
5014;SDS011;2526;51.060;4.228;2022-09-01T15:12:07;0.80;;;0.80;;
5014;SDS011;2526;51.060;4.228;2022-09-01T15:14:33;0.90;;;0.60;;
5014;SDS011;2526;51.060;4.228;2022-09-01T15:16:59;11.98;;;1.25;;
5014;SDS011;2526;51.060;4.228;2022-09-01T15:19:25;0.70;;;0.70;;
5014;SDS011;2526;51.060;4.228;2022-09-01T15:21:50;4.30;;;0.55;;
5014;SDS011;2526;51.060;4.228;2022-09-01T15:24:16;3.75;;;0.95;;
5014;SDS011;2526;51.060;4.228;2022-09-01T15:26:43;1.65;;;0.80;;
5014;SDS011;2526;51.060;4.228;2022-09-01T15:29:11;0.52;;;0.52;;
5014;SDS011;2526;51.060;4.228;2022-09-01T15:31:39;3.58;;;0.88;;
5014;SDS011;2526;51.060;4.228;2022-09-01T15:34:05;7.50;;;0.73;;
5014;SDS011;2526;51.060;4.228;2022-09-01T15:36:33;7.65;;;0.88;;
5014;SDS011;2526;51.060;4.228;2022-09-01T15:38:59;7.28;;;1.00;;
5014;SDS011;2526;51.060;4.228;2022-09-01T15:41:29;3.22;;;0.90;;
5014;SDS011;2526;51.060;4.228;2022-09-01T15:43:56;1.52;;;0.90;;
5014;SDS011;2526;51.060;4.228;2022-09-01T15:46:22;1.13;;;0.73;;
5014;SDS011;2526;51.060;4.228;2022-09-01T15:48:56;2.92;;;0.75;;
5014;SDS011;2526;51.060;4.228;2022-09-01T15:53:48;0.75;;;0.50;;
5014;SDS011;2526;51.060;4.228;2022-09-01T15:56:14;7.40;;;0.90;;
5014;SDS011;2526;51.060;4.228;2022-09-01T15:58:42;0.95;;;0.80;;
5014;SDS011;2526;51.060;4.228;2022-09-01T16:01:07;1.48;;;0.75;;
5014;SDS011;2526;51.060;4.228;2022-09-01T16:03:33;1.75;;;0.60;;
5014;SDS011;2526;51.060;4.228;2022-09-01T16:05:59;4.72;;;0.77;;
5014;SDS011;2526;51.060;4.228;2022-09-01T16:08:25;1.52;;;1.38;;
5014;SDS011;2526;51.060;4.228;2022-09-01T16:10:50;11.27;;;0.95;;
5014;SDS011;2526;51.060;4.228;2022-09-01T16:13:16;1.15;;;0.80;;
5014;SDS011;2526;51.060;4.228;2022-09-01T16:15:50;0.85;;;0.60;;
5014;SDS011;2526;51.060;4.228;2022-09-01T16:18:27;0.47;;;0.43;;